x

8411060 - Cutler Farris Wharf, Me (cfwm1) Weather Station

8:54am - Fri 29th Jul 2016 All times are ADT. -3 hours from GMT.

  • Wind
    1mph, 2mph gusts
  • Sea Temp 52°f
  • Air Temp 60°f
  • Sea Pressure 1011.7mb
  •  8411060 - Cutler Farris Wharf, Me
  •  8411060 - Cutler Farris Wharf, Me

More Historic Weather Station data

Upgrade to MSW Pro to gain access to the past 30 days of data for over 8000 Wavebouys and Weather Stations around the globe.

Join Pro

Comparision Forecast

View Surf forecast
   
Fri 07/29 8:54am 1 2 mph 1011.7mb 52f 60f
8:48am  -  2 mph 1011.7mb 52f 59f
8:42am  -  3 mph 1011.7mb 52f 59f
8:36am 1 2 mph 1011.7mb 52f 58f
8:30am 1 2 mph 1011.7mb 52f 57f
8:24am  -  2 mph 1011.7mb 52f 57f
8:18am 2
mph
1011.8mb 52f 56f
8:12am  -  1 mph 1011.8mb 52f 56f
8:06am  -  2 mph 1011.7mb 52f 57f
8:00am  -  2 mph 1011.7mb 52f 57f
7:54am 2 3 mph 1011.8mb 52f 56f
7:48am  -  2 mph 1011.7mb 52f 57f
7:42am  -  1 mph 1011.6mb 52f 56f
7:36am 1
mph
1011.6mb 52f 56f
7:30am  -  2 mph 1011.6mb 52f 56f
7:24am  -  2 mph 1011.6mb 52f 56f
7:18am  -  1 mph 1011.7mb 52f 56f
7:12am  -  mph 1011.6mb 52f 56f
7:06am  -  mph 1011.6mb 52f 56f
7:00am  -  1 mph 1011.5mb 52f 56f
6:54am  -  mph 1011.5mb 52f 56f
6:48am  -  mph 1011.5mb 52f 56f
6:42am  -  1 mph 1011.4mb 52f 56f
6:36am 1 2 mph 1011.4mb 52f 56f
6:30am 1 2 mph 1011.3mb 52f 56f
6:24am  -  1 mph 1011.4mb 52f 56f
6:18am  -  2 mph 1011.3mb 52f 56f
6:12am  -  5 mph 1011.4mb 52f 56f
6:06am 2
mph
1011.3mb 53f 56f
6:00am 1 3 mph 1011.2mb 53f 56f
5:54am  -  2 mph 1011.1mb 53f 56f
5:48am 1
mph
1011mb 53f 58f
5:42am  -  2 mph 1011mb 53f 58f
5:36am 1
mph
1011mb 53f 57f
5:30am  -  mph 1010.9mb 53f 58f
5:24am  -  mph 1010.8mb 53f 58f
5:18am  -  mph 1010.9mb 53f 58f
5:12am  -  mph 1011mb 53f 58f
5:06am  -  mph 1010.9mb 53f 58f
5:00am  -  mph 1010.9mb 53f 57f
4:54am  -  mph 1010.8mb 53f 57f
4:48am  -  1 mph 1010.8mb 53f 57f
4:42am  -  1 mph 1010.8mb 53f 57f
4:36am  -  mph 1010.9mb 53f 57f
4:30am  -  1 mph 1011mb 53f 57f
4:24am  -  3 mph 1011mb 54f 57f
4:18am 2
mph
1011mb 54f 57f
4:12am  -  1 mph 1011mb 54f 57f
4:06am  -  1 mph 1011mb 54f 57f
4:00am  -  mph 1010.9mb 54f 56f
3:54am  -  3 mph 1010.9mb 54f 56f
3:48am 2
mph
1010.9mb 55f -
3:42am  -  1 mph 1010.9mb 55f -
3:36am  -  3 mph 1011mb 55f -
3:30am 2 5 mph 1011mb 55f 56f
3:24am  -  mph 1011mb 55f 57f
3:18am  -  1 mph 1011mb 56f 57f
3:12am  -  1 mph 1011mb 56f 57f
3:06am  -  1 mph 1011mb 56f 58f
3:00am  -  1 mph 1011mb 56f 58f
2:54am  -  2 mph 1011mb 56f 58f
2:48am  -  3 mph 1011.2mb 57f -
2:42am 2 3 mph 1011.2mb 57f -
2:36am 2 5 mph 1011.1mb 57f -
2:30am 1 2 mph 1011.4mb 58f 58f
2:24am  -  6 mph 1011.3mb 58f 58f
2:18am  -  2 mph 1011.2mb 58f 59f
2:12am 1 3 mph 1011.2mb 59f 60f
2:06am  -  1 mph 1011.3mb 59f 60f
2:00am  -  1 mph 1011.4mb 59f 60f
1:54am  -  1 mph 1011.5mb 59f 60f
1:48am  -  3 mph 1011.6mb 59f 59f
1:42am  -  2 mph 1011.6mb 59f 60f
1:36am  -  mph 1011.5mb 59f 60f
1:30am  -  1 mph 1011.6mb 59f 60f
1:24am  -  1 mph 1011.5mb 59f 60f
1:18am  -  2 mph 1011.5mb 58f 60f
1:12am  -  1 mph 1011.5mb 58f 60f
1:06am  -  1 mph 1011.7mb 58f 60f
1:00am  -  1 mph 1011.7mb 58f 60f
12:54am  -  2 mph 1011.7mb 58f 60f
12:48am  -  2 mph 1011.8mb 57f 60f
12:42am  -  2 mph 1011.7mb 57f 60f
12:36am  -  1 mph 1011.8mb 57f 60f
12:30am  -  3 mph 1011.8mb 56f 60f
12:24am 2 3 mph 1011.8mb 56f 60f
12:18am  -  mph 1011.8mb 56f -
12:12am  -  mph 1011.8mb 56f -
12:06am  -  mph 1011.8mb 55f -
12:00am  -  2 mph - 55f -
Thu 07/28 11:54pm 1 2 mph - 55f -
11:48pm  -  2 mph 1011.6mb 55f -
11:42pm 1 2 mph 1011.7mb 54f -
11:36pm  -  5 mph 1011.8mb 54f -
11:30pm 1 3 mph - - -
11:24pm  -  5 mph - - -
11:18pm  -  mph - 53f 62f
11:12pm  -  mph - 53f 62f
11:06pm  -  mph - 53f 62f
11:00pm  -  mph 1011.9mb - -
10:54pm  -  mph 1012mb - -
10:48pm  -  7 mph 1012mb 53f -
10:42pm 5 6 mph 1012mb 52f -
10:36pm  -  2 mph 1012.1mb 52f -
10:30pm 1 5 mph 1012.1mb - -
10:24pm 2 5 mph 1012.1mb - -
10:18pm 1 6 mph - 52f -
10:12pm 5 9 mph - 52f -
10:06pm 2 8 mph - 52f -
10:00pm  -  mph - 52f 61f
9:54pm  -  mph - 52f 61f
9:48pm 7 10 mph 1011.9mb 52f -
9:42pm 3 7 mph 1012mb 52f -
9:36pm 3 6 mph 1012mb 52f -
9:30pm 2
mph
1011.9mb 52f -
9:24pm  -  2 mph 1011.8mb 52f -
9:18pm  -  1 mph 1011.8mb 52f -
9:12pm  -  2 mph 1011.7mb 52f -
9:06pm  -  1 mph 1011.8mb 52f -
9:00pm  -  mph - 52f 61f
8:54pm  -  mph - 52f 61f
8:48pm  -  2 mph 1011.7mb - -
8:42pm 1 2 mph 1011.7mb - -
8:36pm  -  1 mph 1011.8mb - -
8:30pm  -  2 mph - - -
8:24pm  -  3 mph - - -
8:18pm 1 2 mph - 52f -
8:12pm  -  2 mph - 52f -
8:06pm  -  2 mph - 52f -
8:00pm  -  mph - 52f -
7:54pm  -  mph - 52f -
7:48pm  -  mph - 52f -
7:42pm  -  mph - 52f -
7:36pm  -  mph - 52f -
7:30pm  -  3 mph 1011.8mb 52f -
7:24pm 1 6 mph 1011.7mb 52f -
7:18pm 5 7 mph 1011.8mb 52f 63f
7:12pm 3 8 mph 1011.8mb 52f 63f
7:06pm 5 7 mph 1011.8mb 52f 63f
7:00pm 5 8 mph 1011.8mb 52f -
6:54pm 7 9 mph 1011.7mb 52f -
6:48pm 6 8 mph - 52f 64f
6:42pm 5 6 mph - 52f 64f
6:36pm 2 9 mph - 52f 64f
6:30pm 3 6 mph 1011.8mb 53f 64f
6:24pm 6 9 mph 1011.9mb 53f 64f
6:18pm 7 9 mph 1011.7mb 53f 64f
6:12pm 6 7 mph 1011.7mb 53f 64f
6:06pm 3 9 mph 1011.4mb 53f 64f
6:00pm 3 6 mph 1011.6mb 53f 64f
5:54pm 2 6 mph 1011.5mb 53f 64f
5:48pm 5 10 mph 1011.2mb 53f 64f
5:42pm 6 10 mph 1011.2mb 53f 64f
5:36pm 7 13 mph 1011.1mb 53f 64f
5:30pm 8 11 mph 1011.1mb 53f 64f
5:24pm 8 11 mph 1010.9mb 53f 65f
5:18pm 8 13 mph 1010.8mb 53f 65f
5:12pm 7 11 mph 1011mb 53f 65f
5:06pm 6 11 mph 1011.1mb 53f 65f
5:00pm 7 11 mph 1011mb 53f 65f
4:54pm 7 13 mph 1011mb 53f 65f
4:48pm 9 14 mph 1010.8mb 53f 65f
4:42pm 10 15 mph 1010.7mb 53f 65f
4:36pm 9 14 mph 1010.8mb 53f 65f
4:30pm 10 14 mph 1010.8mb 53f 66f
4:24pm 9 11 mph 1010.9mb 53f 66f
4:18pm 6 10 mph 1010.9mb 53f 66f
4:12pm 8 13 mph 1010.9mb 54f 66f
4:06pm 7 10 mph 1010.9mb 54f 66f
4:00pm 7 10 mph 1010.9mb 54f 66f
3:54pm 7 11 mph 1010.9mb 55f 66f
3:48pm 7 11 mph 1011mb 56f 65f
3:42pm 6 15 mph 1010.9mb 56f 66f
3:36pm 9 15 mph 1011.1mb 57f 66f
3:30pm 8 11 mph 1011.1mb 57f 67f
3:24pm 7 11 mph 1011.3mb 57f 67f
3:18pm 6 10 mph 1011.3mb 57f 67f
3:12pm 6 14 mph 1011.5mb 57f 67f
3:06pm 10 16 mph 1011.5mb 57f 68f
3:00pm 10 14 mph 1011.6mb 57f 69f
2:54pm 10 15 mph 1011.6mb 57f 69f
2:48pm 13 16 mph 1011.7mb 57f 69f
2:42pm 9 13 mph 1011.8mb 57f 69f
2:36pm 8 14 mph 1011.8mb 57f 69f
2:30pm 7 13 mph 1011.8mb 58f 69f
2:24pm 8 15 mph 1011.9mb 58f 68f
2:18pm 11 14 mph 1012mb 58f 69f
2:12pm 10 15 mph 1012mb 58f 69f
2:06pm 9 16 mph 1012mb 58f 69f
2:00pm 13 14 mph 1012.1mb 58f 69f
1:54pm 8 14 mph 1012mb 58f 69f
1:48pm 9 16 mph 1012.1mb 58f 68f
1:42pm 8 13 mph 1012mb 57f 68f
1:36pm 10 15 mph 1011.9mb 57f 68f
1:30pm 9 11 mph 1012mb 57f 69f
1:24pm 8 13 mph 1012mb 57f 69f
1:18pm 10 14 mph 1012mb 57f 69f
1:12pm 10 14 mph 1012mb 57f 69f
1:06pm 10 11 mph 1012.1mb 57f 69f
1:00pm 9 14 mph 1012.1mb 57f 69f
12:54pm 8 14 mph 1012.1mb 57f 69f
12:48pm 9 16 mph 1012.2mb 56f 69f
12:42pm 10 16 mph 1012.2mb 56f 68f
12:36pm 11 16 mph 1012.2mb 55f 68f
12:30pm 10 15 mph 1012.1mb 55f 68f
12:24pm 9 14 mph 1012.2mb 55f 68f
12:18pm 10 15 mph 1012.1mb 55f 68f
12:12pm 10 14 mph 1012.2mb 55f 68f
12:06pm 11 15 mph 1012.2mb 55f 68f
12:00pm 10 14 mph 1012.2mb 55f 68f
11:54am 9 13 mph 1012.2mb 54f 67f
11:48am 10 15 mph 1012.2mb 54f 68f
11:42am 10 14 mph 1012.2mb 54f 69f
11:36am 9 13 mph 1012.2mb 54f 69f
11:30am 7 15 mph 1012.2mb 54f 69f
11:24am 8 13 mph 1012.1mb 54f 69f
11:18am 6 11 mph 1012.1mb 54f 69f
11:12am 8 11 mph 1012.1mb 53f 68f
11:06am 8 11 mph 1012mb 53f 68f
11:00am 7 14 mph 1012.1mb 53f 67f
10:54am 9 13 mph 1012.1mb 53f 67f
10:48am 5 9 mph 1012.1mb 53f 66f
10:42am 6 11 mph 1012.1mb 52f 65f
10:36am 7 14 mph 1012.1mb 52f 65f
10:30am 5 10 mph 1012.1mb 52f 65f
10:24am 6 13 mph 1012.1mb 52f 64f
10:18am 6 7 mph 1012.2mb 52f 64f
10:12am 6 7 mph 1012.2mb 52f 64f
10:06am 2 6 mph 1012.3mb 52f 63f
10:00am 2 6 mph 1012.3mb 52f 63f
9:54am 3 9 mph 1012.3mb 52f 63f
9:48am 6 11 mph 1012.3mb 52f 64f
9:42am 2 7 mph 1012.2mb 52f 64f
9:36am 5 8 mph 1012.2mb 52f 63f
9:30am 2 3 mph 1012.3mb 52f 63f
9:24am 2 5 mph 1012.3mb 52f 63f
9:18am 3 8 mph 1012.4mb 52f 63f
9:12am 6 8 mph 1012.4mb 52f 63f
9:06am 7 8 mph 1012.5mb 52f 63f
9:00am 6 7 mph 1012.3mb 52f 63f
8:54am 3 6 mph 1012.2mb 52f 62f
8:48am 5 9 mph 1012.2mb 52f 62f
8:42am 6 9 mph 1012.1mb 52f 62f
8:36am 2 5 mph 1012mb 52f 63f
8:30am 3 5 mph 1012mb 52f 63f
8:24am 3
mph
1012mb 52f 63f
8:18am  -  2 mph 1012mb 52f 62f
8:12am 1 5 mph 1012mb 52f 61f
8:06am 2 5 mph 1012mb 52f 61f
8:00am 1 3 mph 1012mb 52f 61f
7:54am 1 3 mph 1011.9mb 52f 61f
7:48am  -  1 mph 1011.9mb 52f 61f
7:42am  -  mph 1011.8mb 52f 61f
7:36am  -  2 mph 1011.8mb 52f 61f
7:30am  -  2 mph 1011.8mb 52f 60f
7:24am 1 2 mph 1011.8mb 52f 60f
7:18am 1 2 mph 1011.8mb 52f 60f
7:12am 2 3 mph 1011.8mb 52f 60f
7:06am 1 3 mph 1011.8mb 52f 60f
7:00am 2
mph
1011.7mb 52f 59f
6:54am  -  2 mph 1011.6mb 52f 59f
6:48am 1 2 mph 1011.6mb 52f 59f
6:42am  -  3 mph 1011.5mb 52f 59f
6:36am 2
mph
1011.5mb 52f 59f
6:30am  -  2 mph 1011.5mb 52f 60f
6:24am  -  1 mph 1011.5mb 52f 60f
6:18am  -  1 mph 1011.4mb 52f 59f
6:12am  -  3 mph 1011.4mb 52f 59f
6:06am 2 3 mph 1011.4mb 52f 59f
6:00am 1 3 mph 1011.4mb 52f 59f
5:54am 2 3 mph 1011.3mb 52f 58f
5:48am 2 3 mph 1011.3mb 52f 59f
5:42am 2
mph
1011.3mb 52f 59f
5:36am 2 3 mph 1011.3mb 52f 60f
5:30am 1 5 mph 1011.2mb 52f 60f
5:24am 2 5 mph 1011.2mb 52f 61f
5:18am 3
mph
1011.2mb 52f 61f
5:12am 1 2 mph 1011.1mb 52f 62f
5:06am 1 2 mph 1011.1mb 52f 62f
5:00am 1 2 mph 1011.1mb 53f 62f
4:54am  -  2 mph 1011mb 53f 63f
4:48am 1 2 mph 1011mb 53f 62f
4:42am  -  1 mph 1011mb 53f 62f
4:36am  -  2 mph 1011mb 53f 63f
4:30am  -  1 mph 1011.1mb 53f 62f
4:24am  -  1 mph 1011.1mb 53f 62f
4:18am  -  mph 1011.1mb 53f 62f
4:12am  -  3 mph 1011.1mb 53f 62f
4:06am 1 2 mph 1011.1mb 53f 63f
4:00am 1 2 mph 1011.1mb 53f 62f
3:54am 1
mph
1011.1mb 53f 62f
3:48am  -  2 mph 1011.2mb 53f -
3:42am  -  1 mph 1011.1mb 53f -
3:36am  -  1 mph 1010.9mb 53f -
3:30am  -  1 mph 1010.9mb 53f 62f
3:24am  -  2 mph 1011mb 53f 61f
3:18am  -  1 mph 1011mb 53f 61f
3:12am  -  1 mph 1010.9mb 53f 62f
3:06am 1
mph
1011.1mb 53f 61f
3:00am  -  mph 1011.1mb 54f 61f
2:54am  -  2 mph 1011.1mb 54f 61f
2:48am  -  mph 1011.2mb 54f -
2:42am  -  1 mph 1011.1mb 55f -
2:36am  -  1 mph 1011.1mb 55f -
2:30am  -  2 mph 1011mb 55f 63f
2:24am 1 3 mph 1011mb 55f 62f
2:18am  -  1 mph 1011.1mb 55f 62f
2:12am  -  5 mph 1011.2mb 56f 62f
2:06am 3 5 mph 1011.2mb 56f 63f
2:00am 2
mph
1011.2mb 56f 63f
1:54am  -  2 mph 1011.2mb 56f 63f
1:48am 1 3 mph 1011.2mb 56f 64f
1:42am 1 2 mph 1011.1mb 57f 64f
1:36am 1 2 mph 1011.1mb 58f 64f
1:30am  -  2 mph 1011mb 58f 64f
1:24am  -  2 mph 1011.1mb 59f 64f
1:18am 2 5 mph 1011.1mb 59f 64f
1:12am 2
mph
1011mb 59f 65f
1:06am  -  3 mph 1010.9mb 59f 65f
1:00am  -  3 mph 1010.8mb 59f 65f
12:54am 2 5 mph 1010.8mb 60f 65f
12:48am 2 3 mph 1010.7mb 59f 65f
12:42am  -  5 mph 1010.9mb 60f 65f
12:36am 2 7 mph 1011mb 60f 65f
12:30am 5 7 mph 1011.2mb 59f 65f
12:24am 2 6 mph 1011.2mb 59f 65f
12:18am 2 6 mph - 59f -
12:12am 3 6 mph - 59f -
12:06am 2 3 mph - 58f -
12:00am 1 3 mph 1011.2mb 58f -
Wed 07/27 11:54pm 1 2 mph 1011.2mb 58f -
11:48pm 1 2 mph - - -
11:42pm  -  1 mph - - -
11:36pm 1 3 mph - - -
11:30pm 2
mph
- - -
11:24pm  -  2 mph - - -
11:18pm 2
mph
- 57f -
11:12pm 1 2 mph - 57f -
11:06pm  -  mph - 56f -
11:00pm  -  mph - 56f -
10:54pm  -  mph - 56f -
10:48pm 2 5 mph - - -
10:42pm 2 3 mph - - -
10:36pm 1 3 mph - - -
10:30pm  -  mph 1011mb - -
10:24pm  -  mph 1010.9mb - -
10:18pm 2 3 mph - - -
10:12pm 1 2 mph - - -
10:06pm  -  3 mph - - -
10:00pm  -  mph - 53f -
9:54pm  -  mph - 53f -
9:48pm  -  2 mph 1010.8mb - -
9:42pm 1 2 mph 1010.8mb - -
9:36pm 2
mph
1010.7mb - -
9:30pm  -  mph 1010.8mb 53f -
9:24pm  -  mph 1010.8mb 53f -
9:18pm  -  mph - 53f 66f
9:12pm  -  mph - 52f 66f
9:06pm  -  mph - 52f 66f
9:00pm  -  mph - 52f 66f
8:54pm  -  mph - 52f 67f
8:48pm  -  mph 1010.9mb - -
8:42pm  -  mph 1011mb - -
8:36pm  -  mph 1011mb - -
8:30pm 8 10 mph - 52f -
8:24pm 6 8 mph - 52f -
8:18pm  -  mph - 52f 69f
8:12pm  -  mph - 52f 69f
8:06pm  -  mph - 52f 70f
8:00pm  -  mph - 52f 70f
7:54pm  -  mph - 52f 71f
7:48pm  -  mph - 52f 71f
7:42pm  -  mph - 52f 71f
7:36pm  -  mph - 52f 71f
7:30pm 11 15 mph - - -
7:24pm 11 16 mph - - -
7:18pm 11 15 mph 1010.8mb 52f 71f
7:12pm 11 15 mph 1010.9mb 52f 71f
7:06pm 8 9 mph 1010.9mb 52f 71f
7:00pm  -  mph - 52f -
6:54pm  -  mph - 52f -
6:48pm 11 14 mph - 52f 71f
6:42pm 9 14 mph - 53f 71f
6:36pm 11 15 mph - 53f 71f
6:30pm 10 15 mph 1010.6mb 53f 71f
6:24pm 9 14 mph 1010.5mb 53f 71f
6:18pm 8 14 mph 1010.5mb 53f 71f
6:12pm 10 14 mph 1010.4mb 53f 71f
6:06pm 8 11 mph 1010.4mb 53f 71f
6:00pm 8 13 mph 1010.4mb 53f 71f
5:54pm 10 15 mph 1010.3mb 53f 71f
5:48pm 10 16 mph 1010.4mb 53f 71f
5:42pm 10 14 mph 1010.3mb 53f 72f
5:36pm 9 15 mph 1010.3mb 53f 72f
5:30pm 7 10 mph 1010.3mb 53f 73f
5:24pm 8 14 mph 1010.4mb 53f 73f
5:18pm 9 13 mph 1010.4mb 53f 73f
5:12pm 8 11 mph 1010.4mb 53f 73f
5:06pm 8 15 mph 1010.5mb 53f 73f
5:00pm 9 14 mph 1010.4mb 53f 73f
4:54pm 10 14 mph 1010.5mb 53f 72f
4:48pm 9 15 mph 1010.5mb 53f 72f
4:42pm 10 15 mph 1010.4mb 53f 72f
4:36pm 11 16 mph 1010.3mb 53f 72f
4:30pm 9 15 mph 1010.4mb 53f 72f
4:24pm 10 15 mph 1010.5mb 53f 72f
4:18pm 10 14 mph 1010.6mb 53f 72f
4:12pm 10 15 mph 1010.6mb 53f 73f
4:06pm 10 16 mph 1010.6mb 53f 73f
4:00pm 13 16 mph 1010.7mb 53f 72f
3:54pm 9 14 mph 1010.7mb 53f 73f
3:48pm 10 16 mph 1010.7mb 54f 73f
3:42pm 9 14 mph 1010.7mb 55f 73f
3:30pm 10 13 mph 1010.8mb 55f 73f
3:24pm 9 13 mph 1010.8mb 55f 72f
3:18pm 9 15 mph 1010.9mb 55f 72f
3:12pm 13 15 mph 1010.9mb 55f 71f
3:06pm 13 15 mph 1011mb 55f 72f
3:00pm 10 14 mph 1010.9mb 56f 73f
2:54pm 10 14 mph 1011mb 55f 73f
2:48pm 10 11 mph 1011mb 55f 74f
2:42pm 8 11 mph 1011mb 55f 74f
2:36pm 9 11 mph 1011mb 55f 74f
2:30pm 8 10 mph 1011mb 55f 74f
2:24pm 9 11 mph 1011mb 55f 73f
2:18pm 9 11 mph 1011.1mb 55f 73f
2:12pm 9 11 mph 1011.1mb 55f 73f
2:06pm 7 9 mph 1011.2mb 55f 73f
2:00pm 3 7 mph 1011.2mb 56f 73f
1:54pm 3 10 mph 1011.1mb 56f 73f
1:48pm 3 9 mph 1011.1mb 56f 73f
1:42pm 3 7 mph 1011.1mb 56f 73f
1:36pm 2 7 mph 1011.1mb 56f 74f
1:30pm 3 8 mph 1011.1mb 55f 73f
1:24pm 3 5 mph 1011.1mb 55f 73f
1:18pm 2 6 mph 1011.1mb 56f 73f
1:12pm 2 6 mph 1011.1mb 56f 74f
1:06pm  -  3 mph 1011.1mb 56f 77f
1:00pm 1 5 mph 1011.1mb 56f 76f
12:54pm 2 5 mph 1011.1mb 56f 76f
12:48pm  -  3 mph 1011.1mb 56f 77f
12:42pm 1 3 mph 1011.1mb 56f 76f
12:36pm  -  3 mph 1011.1mb 56f 76f
12:30pm 2 3 mph 1011mb 55f 76f
12:24pm 1 5 mph 1011mb 55f 75f
12:18pm 2 5 mph 1011mb 55f 75f
12:12pm 2 3 mph 1010.9mb 55f 76f
12:06pm 1 3 mph 1010.9mb 55f 75f
12:00pm 1 3 mph 1011mb 55f 75f
11:54am 1 5 mph 1011mb 55f 75f
11:48am  -  3 mph 1011mb 55f 74f
11:42am 1 3 mph 1011mb 54f 74f
11:36am  -  2 mph 1011mb 54f 73f
11:30am  -  2 mph 1011mb 54f 73f
11:24am  -  2 mph 1011mb 53f 72f
11:18am  -  3 mph 1010.9mb 53f 72f
11:12am  -  2 mph 1010.8mb 53f 72f
11:06am 1 3 mph 1010.8mb 53f 71f
11:00am  -  3 mph 1010.8mb 53f 70f
10:54am  -  3 mph 1010.8mb 53f 71f
10:48am 2 6 mph 1010.7mb 53f 71f
10:42am 2 5 mph 1010.7mb 53f 72f
10:36am 3 5 mph 1010.7mb 53f 73f
10:30am  -  6 mph 1010.6mb 53f 76f
10:24am 2 6 mph 1010.7mb 53f 76f
10:18am 5 6 mph 1010.7mb 53f 76f
10:12am 2 8 mph 1010.7mb 53f 75f
10:06am 3 7 mph 1010.7mb 53f 75f
10:00am 5 8 mph 1010.7mb 53f 74f
9:54am 5 10 mph 1010.7mb 53f 74f
9:48am 7 8 mph 1010.7mb 53f 73f
9:42am  -  2 mph 1010.6mb 52f 71f
9:36am  -  2 mph 1010.6mb 52f 69f
9:30am  -  2 mph 1010.6mb 52f 68f
9:24am  -  2 mph 1010.6mb 52f 67f
9:18am 2 5 mph 1010.5mb 52f 68f
9:12am 2 3 mph 1010.5mb 52f 69f
9:06am  -  3 mph 1010.5mb 52f 67f
9:00am  -  1 mph 1010.5mb 52f 68f
8:54am 1 2 mph 1010.6mb 52f 68f
8:48am  -  5 mph 1010.5mb 52f 68f
8:42am 2 3 mph 1010.5mb 52f 70f
8:36am 2 5 mph 1010.5mb 52f 71f
8:30am 2 5 mph 1010.5mb 52f 71f
8:24am 2 5 mph 1010.4mb 52f 70f
8:18am 3 5 mph 1010.5mb 52f 70f
8:12am 1 2 mph 1010.5mb 52f 70f
8:06am 1 2 mph 1010.5mb 52f 69f
8:00am  -  1 mph 1010.5mb 52f 69f
7:54am  -  3 mph 1010.4mb 52f 70f
7:48am 1 3 mph 1010.3mb 52f 69f
7:42am 2 5 mph 1010.3mb 52f 68f
7:36am 2 3 mph 1010.3mb 52f 68f
7:30am 2 5 mph 1010.3mb 52f 68f
7:24am  -  2 mph 1010.3mb 52f 67f
7:18am 1
mph
1010.3mb 52f 67f
7:12am  -  3 mph 1010.3mb 52f 66f
7:06am 2 5 mph 1010.3mb 52f 66f
7:00am 1 2 mph 1010.3mb 52f 66f
6:54am  -  3 mph 1010.2mb 52f 65f
6:48am 1 5 mph 1010.1mb 52f 65f
6:42am 2
mph
1010mb 52f 65f
6:36am 1 3 mph 1010mb 52f 65f
6:30am 3 5 mph 1010mb 52f 65f
6:24am 3 5 mph 1009.9mb 52f 65f
6:18am 1 2 mph 1009.8mb 52f 65f
6:12am 2 3 mph 1009.7mb 52f 65f
6:06am 1 2 mph 1009.6mb 52f 65f
6:00am 1 2 mph 1009.6mb 52f 65f
5:54am 2
mph
1009.5mb 52f 65f
5:48am 1 2 mph 1009.4mb 52f 65f
5:42am  -  2 mph 1009.4mb 52f 65f
5:36am 2 3 mph 1009.3mb 52f 66f
5:30am 2 5 mph 1009.1mb 52f 66f
5:24am 3 5 mph 1009.1mb 52f 66f
5:18am 2 3 mph 1009.1mb 52f 66f
5:12am 3 6 mph 1009mb 52f 66f
5:06am 3 6 mph 1009mb 52f 66f
5:00am 3 6 mph 1009mb 52f 67f
4:54am 5 6 mph 1009mb 52f 67f
4:48am 5 8 mph 1009mb 52f 67f
4:42am 5 7 mph 1009mb 52f 67f
4:36am 3 7 mph 1008.9mb 52f 67f
4:30am 5 7 mph 1008.8mb 52f 67f
4:24am 5 8 mph 1008.8mb 52f 67f
4:18am 5 8 mph 1008.7mb 52f 67f
4:12am 6 7 mph 1008.7mb 52f 67f
4:06am 3 6 mph 1008.7mb 52f 67f
4:00am 3 7 mph 1008.8mb 52f 67f
3:54am 5 7 mph 1008.7mb 52f 67f
3:48am 3 5 mph 1008.7mb 52f 67f
3:42am 3 5 mph 1008.8mb 52f 67f
3:36am 5 7 mph 1008.8mb 52f 67f
3:30am 3 5 mph 1008.9mb 52f 67f
3:24am 5 6 mph 1008.9mb 53f 67f
3:18am 3 5 mph 1008.9mb 53f 67f
3:12am 3
mph
1008.9mb 53f 66f
3:06am 2 5 mph 1008.9mb 53f 66f
3:00am 3 6 mph 1008.9mb 53f 66f
2:54am 3 5 mph 1009mb 53f 67f
2:48am 3 6 mph 1009mb 53f 67f
2:42am 3 6 mph 1009mb 53f 67f
2:36am 5 8 mph 1009.1mb 53f 67f
2:30am 5 8 mph 1009.1mb 53f 67f
2:24am 6 8 mph 1009.1mb 53f 67f
2:18am 6 8 mph 1009.1mb 53f 67f
2:12am 7 9 mph 1009.1mb 53f 67f
2:06am 6 8 mph 1009mb 53f 67f
2:00am 5 6 mph 1009mb 53f 66f
1:54am  -  1 mph 1008.9mb 53f 65f
1:48am  -  1 mph 1008.8mb 54f 64f
1:42am  -  1 mph 1008.9mb 54f 64f
1:36am  -  1 mph 1008.9mb 54f 64f
1:30am 1
mph
1008.8mb 55f 64f
1:24am  -  1 mph 1008.8mb 55f 64f
1:18am  -  1 mph 1008.8mb 55f 65f
1:12am  -  1 mph 1008.8mb 55f 65f
1:06am  -  1 mph 1008.8mb 56f 65f
1:00am  -  1 mph 1008.8mb 56f 65f
12:54am  -  1 mph 1008.8mb 56f 65f
12:48am  -  1 mph 1008.9mb 57f 65f
12:42am  -  2 mph 1008.9mb 57f 65f
12:36am 2
mph
1008.9mb 57f 65f
12:30am 1
mph
1008.8mb 57f 66f
12:24am  -  2 mph 1008.8mb 57f 67f
12:18am  -  2 mph 1008.8mb 58f -
12:12am 1 2 mph 1008.8mb 58f -
12:06am 1 5 mph 1008.8mb 58f -
12:00am 2 6 mph - 58f -
Tue 07/26 11:54pm 3 8 mph - 58f -
11:48pm 5 10 mph 1008.4mb 58f -
11:42pm 5 7 mph 1008.4mb 58f -
11:36pm 3 6 mph 1008.1mb 58f -
11:30pm 2 5 mph - 58f 65f
11:24pm 2 5 mph - 58f 65f
11:18pm 3 6 mph 1008mb 58f 65f
11:12pm 5 7 mph 1008mb 58f 66f
11:06pm 3 6 mph 1008mb 57f 66f
11:00pm  -  mph - 57f 66f
10:54pm  -  mph - 57f 65f
10:48pm 2 3 mph - - -
10:42pm 3
mph
- - -
10:36pm 2 5 mph - - -
10:30pm 2 5 mph - 56f -
10:24pm 1 2 mph - 56f -
10:18pm 1 2 mph - 56f 64f
10:12pm  -  3 mph - 56f 64f
10:06pm  -  2 mph - 56f 64f
10:00pm  -  mph - 55f 63f
9:54pm  -  mph - 55f 63f
9:48pm 2 3 mph 1007.5mb - -
9:42pm 2 5 mph 1007.5mb - -
9:36pm 2 5 mph 1007.4mb - -
9:30pm 3 6 mph - 55f 62f
9:24pm 5
mph
- 54f 62f
9:18pm  -  mph - 54f 63f
9:12pm  -  mph - 54f 63f
9:06pm  -  mph - 53f 63f
9:00pm  -  mph - 53f -
8:54pm  -  mph - 53f -
8:48pm  -  mph - 53f -
8:42pm  -  mph - 53f -
8:36pm  -  mph - 52f -
8:30pm  -  3 mph - 52f 64f
8:24pm 1 3 mph - 52f 64f
8:18pm 2 13 mph 1006.9mb 52f -
8:12pm 7 14 mph 1006.9mb 52f -
8:06pm 6 8 mph 1006.7mb 52f -
8:00pm  -  mph 1006.6mb 52f -
7:54pm  -  mph 1006.8mb 52f -
7:48pm  -  mph 1006.9mb 52f -
7:42pm  -  mph 1007.1mb 52f -
7:36pm  -  mph 1007.2mb 52f -
7:30pm 2 3 mph 1007mb 52f 63f
7:24pm 2 3 mph 1006.9mb 52f 62f
7:18pm 1 2 mph 1006.9mb 52f -
7:12pm 1 5 mph 1006.8mb 52f -
7:06pm 3 5 mph 1006.7mb 52f -
7:00pm  -  mph - 52f 62f
6:54pm  -  mph - 52f 62f
6:48pm 2 7 mph - 52f -
6:42pm  -  3 mph - 52f -
6:36pm 2 7 mph - 52f -
6:30pm 5 7 mph 1006.8mb 52f 64f
6:24pm 5 11 mph 1006.6mb 52f 64f
6:18pm 9 13 mph 1006.6mb 52f 64f
6:12pm 3 6 mph 1006.7mb 52f 67f
6:06pm 3 6 mph 1006.8mb 52f 69f
6:00pm 5 7 mph 1007.1mb 52f 69f
5:54pm 6 9 mph 1007mb 52f 66f
5:48pm 2 5 mph 1006.2mb 52f 65f
5:42pm 1 6 mph 1006mb 52f 67f
5:36pm 1 8 mph 1005.9mb 52f 68f
5:30pm 5 8 mph 1005.7mb 52f 69f
5:24pm 5 8 mph 1005.6mb 52f 69f
5:18pm 6 10 mph 1005.5mb 52f 67f
5:12pm 6 14 mph 1005.7mb 52f 67f
5:06pm 8 11 mph 1005.8mb 52f 66f
5:00pm 10 15 mph 1005.8mb 52f 66f
4:54pm 9 14 mph 1005.7mb 52f 66f
4:48pm 8 9 mph 1005.8mb 52f 65f
4:42pm 3 5 mph 1006mb 52f 60f
4:36pm 1 3 mph 1006mb 52f 61f
4:30pm 1 3 mph 1006mb 52f 62f
4:24pm 2
mph
1006mb 52f 62f
4:18pm 1 2 mph 1006mb 52f 63f
4:12pm  -  1 mph 1006mb 52f 63f
4:06pm  -  2 mph 1006.1mb 52f 63f
4:00pm  -  5 mph 1006mb 52f 63f
3:54pm 2 6 mph 1006mb 52f 64f
3:48pm 2 5 mph 1005.9mb 52f 65f
3:42pm 2 5 mph 1005.8mb 52f 66f
3:36pm  -  5 mph 1005.7mb 53f 66f
3:30pm 2 6 mph 1005.5mb 53f 66f
3:24pm 1 5 mph 1005.7mb 53f 65f
3:18pm  -  3 mph 1005.6mb 53f 66f
3:12pm 2 5 mph 1005.5mb 53f 66f
3:06pm 2 8 mph 1005.6mb 53f 66f
3:00pm 2 6 mph 1005.6mb 53f 67f
2:54pm 3 5 mph 1005.5mb 53f 66f
2:48pm 2 6 mph 1005.6mb 53f 67f
2:42pm 3 5 mph 1005.6mb 53f 67f
2:36pm 2 6 mph 1005.6mb 53f 68f
2:30pm 3 6 mph 1005.6mb 53f 70f
2:24pm 1 5 mph 1005.6mb 53f 71f
2:18pm 1 5 mph 1005.5mb 53f 72f
2:12pm 2 7 mph 1005.5mb 53f 73f
2:06pm 1 5 mph 1005.4mb 53f 73f
2:00pm  -  5 mph 1005.4mb 53f 74f
1:54pm 2 5 mph 1005.5mb 53f 72f
1:48pm 1 5 mph 1005.5mb 54f 72f
1:42pm 1 3 mph 1005.5mb 54f 73f
1:36pm  -  6 mph 1005.5mb 54f 74f
1:30pm 1 6 mph 1005.6mb 54f 74f
1:24pm 3 6 mph 1005.6mb 54f 74f
1:18pm 1 7 mph 1005.6mb 54f 73f
1:12pm 3 6 mph 1005.6mb 54f 72f
1:06pm 2 6 mph 1005.7mb 55f 72f
1:00pm 3 6 mph 1005.7mb 55f 71f
12:54pm 2 6 mph 1005.7mb 55f 69f
12:48pm 3 5 mph 1005.6mb 55f 69f
12:42pm 3 6 mph 1005.6mb 55f 69f
12:36pm  -  5 mph 1005.6mb 55f 69f
12:30pm 2 6 mph 1005.6mb 55f 69f
12:24pm 1 5 mph 1005.6mb 56f 70f
12:18pm 3 6 mph 1005.6mb 56f 70f
12:12pm 2 7 mph 1005.6mb 56f 70f
12:06pm 3 7 mph 1005.7mb 56f 68f
12:00pm 6 8 mph 1005.7mb 56f 70f
11:54am 2 6 mph 1005.7mb 56f 69f
11:48am 6 8 mph 1005.7mb 55f 69f
11:42am 3 8 mph 1005.7mb 55f 68f
11:36am 6 7 mph 1005.6mb 55f 68f
11:30am 6 7 mph 1005.6mb 55f 69f
11:24am 6 7 mph 1005.7mb 55f 68f
11:18am 6 7 mph 1005.7mb 55f 67f
11:12am 3 5 mph 1005.7mb 55f 66f
11:06am 2 3 mph 1005.8mb 55f 67f
11:00am 1 2 mph 1005.8mb 55f 67f
10:54am 2
mph
1005.7mb 55f 67f
10:48am  -  2 mph 1005.8mb 55f 66f
10:42am 1
mph
1005.8mb 55f 67f
10:36am  -  1 mph 1005.9mb 55f 66f
10:30am  -  2 mph 1006mb 55f 65f
10:24am 2 5 mph 1006.1mb 55f 64f
10:18am 3 6 mph 1006.3mb 55f 64f
10:12am 5 6 mph 1006.4mb 55f 63f
10:06am 5 6 mph 1006.4mb 55f 63f
10:00am 5
mph
1006.4mb 55f 63f
9:54am 3 5 mph 1006.5mb 54f 63f
9:48am  -  1 mph 1006.4mb 54f 61f
9:42am  -  mph 1006.5mb 54f 62f
9:36am  -  1 mph 1006.4mb 54f 61f
9:30am 1
mph
1006.4mb 54f 60f
9:24am  -  1 mph 1006.3mb 54f 59f
9:18am  -  1 mph 1006.1mb 54f 59f
9:12am  -  1 mph 1006.1mb 53f 58f
9:06am  -  1 mph 1006.1mb 53f 57f
9:00am  -  3 mph 1006.1mb 53f 58f
8:54am 2
mph
1006.2mb 53f 58f
8:48am  -  mph 1006.3mb 53f 59f
8:42am  -  mph 1006.3mb 53f 59f
8:36am  -  mph 1006.4mb 53f 58f
8:30am  -  1 mph 1006.5mb 53f 58f
8:24am  -  1 mph 1006.5mb 52f 58f
8:18am  -  1 mph 1006.5mb 52f 57f
8:12am  -  2 mph 1006.5mb 52f 57f
8:06am  -  1 mph 1006.6mb 52f 58f
8:00am  -  1 mph 1006.6mb 52f 58f
7:54am  -  mph 1006.6mb 52f 57f
7:48am  -  mph 1006.6mb 52f 57f
7:42am  -  mph 1006.6mb 52f 58f
7:36am  -  1 mph 1006.6mb 52f 58f
7:30am  -  1 mph 1006.7mb 52f 58f
7:24am  -  1 mph 1006.7mb 52f 58f
7:18am  -  1 mph 1006.8mb 52f 58f
7:12am  -  1 mph 1006.7mb 52f 58f
7:06am  -  1 mph 1006.6mb 52f 58f
7:00am  -  2 mph 1006.7mb 52f 58f
6:54am  -  3 mph 1006.7mb 52f 58f
6:48am 1
mph
1006.7mb 52f 58f
6:42am  -  3 mph 1006.7mb 52f 58f
6:36am 2 3 mph 1006.7mb 52f 58f
6:30am  -  2 mph 1006.6mb 52f 59f
6:24am 2
mph
1006.4mb 52f 59f
6:18am  -  2 mph 1006.4mb 52f 58f
6:12am 1 5 mph 1006.3mb 52f 58f
6:06am 2 5 mph 1006.3mb 52f 58f
6:00am 1 2 mph 1006.2mb 52f 59f
5:54am  -  3 mph 1006.2mb 52f 59f
5:48am 2 5 mph 1006mb 52f 59f
5:42am 2 5 mph 1005.9mb 52f 59f
5:36am 1 3 mph 1005.8mb 52f 59f
5:30am  -  3 mph 1005.7mb 52f 59f
5:24am 1 5 mph 1005.8mb 52f 59f
5:18am 2 3 mph 1005.8mb 52f 59f
5:12am 1 3 mph 1005.8mb 52f 59f
5:06am 1 8 mph 1005.8mb 52f 58f
5:00am 5 8 mph 1005.7mb 52f 58f
4:54am 2 7 mph 1005.6mb 52f 59f
4:48am 5 7 mph 1005.4mb 52f 58f
4:42am 3 5 mph 1005.8mb 52f 57f
4:36am  -  3 mph 1006mb 52f 56f
4:30am 2
mph
1006.2mb 52f 57f
4:24am  -  3 mph 1006.3mb 52f 56f
4:18am 1 8 mph 1006.3mb 52f 56f
4:12am 3 7 mph 1006.3mb 52f 56f
4:06am 2 6 mph 1006.6mb 52f 56f
4:00am 2 7 mph 1006.8mb 52f 56f
3:54am 3 7 mph 1007.1mb 52f 57f
3:48am 3
mph
1007mb 52f 58f
3:42am  -  2 mph 1007mb 52f 58f
3:36am 2 3 mph 1007mb 52f 57f
3:30am 2 3 mph 1006.9mb 52f 58f
3:24am 2 5 mph 1007mb 52f 57f
3:18am 2
mph
1007mb 52f 60f
3:12am  -  1 mph 1007mb 52f 61f
3:06am  -  2 mph 1007mb 52f 61f
3:00am  -  1 mph 1007.2mb 52f 60f
2:54am 1 3 mph 1007.2mb 52f 60f
2:48am 3 5 mph 1007.2mb 53f -
2:42am 2 3 mph 1007.3mb 53f -
2:36am 1 3 mph 1007.4mb 53f -
2:30am 2 3 mph 1007.6mb 53f 61f
2:24am 1
mph
1007.8mb 53f 61f
2:18am  -  5 mph 1007.8mb 53f 60f
2:12am 3 6 mph 1007.9mb 53f 61f
2:06am 3 6 mph 1008mb 53f 60f
2:00am 5 6 mph 1008.1mb 53f 60f
1:54am 5 8 mph 1008.1mb 53f 60f
1:48am 6
mph
1008.1mb 53f 60f
1:42am 5 6 mph 1008.2mb 53f 60f
1:36am  -  5 mph 1008.2mb 53f 59f
1:30am 3 5 mph 1008.2mb 53f 59f
1:24am  -  2 mph 1008.2mb 54f 60f
1:18am 2
mph
1008.2mb 54f 60f
1:12am 1 2 mph 1008.5mb 54f 59f
1:06am  -  1 mph 1008.6mb 55f 59f
1:00am  -  2 mph 1008.5mb 55f 59f
12:54am 1 2 mph 1008.3mb 55f 59f
12:48am  -  2 mph 1008.3mb 55f 59f
12:42am  -  3 mph 1008.2mb 55f 59f
12:36am 2 5 mph 1008.5mb 55f 59f
12:30am 2 7 mph 1008.4mb 55f 59f
12:24am 6 9 mph 1008.6mb 55f 59f
12:18am 6 9 mph 1008.7mb 55f 59f
12:12am 3 7 mph 1008.9mb 56f 59f
12:06am 6 7 mph 1008.9mb 56f 59f
12:00am 6 10 mph - 56f 59f
Mon 07/25 11:54pm 6 9 mph - 57f 60f
11:48pm 5 7 mph 1008.6mb - -
11:42pm  -  3 mph 1008.4mb - -
11:36pm 1 3 mph 1008.4mb - -
11:30pm 1 2 mph - 59f 60f
11:24pm  -  2 mph - 59f 60f
11:18pm  -  2 mph - 60f 60f
11:12pm  -  2 mph - 60f 60f
11:06pm  -  3 mph - 60f 60f
11:00pm  -  3 mph - 60f 60f
10:54pm  -  1 mph - 60f 61f
10:48pm  -  2 mph 1008.9mb 60f -
10:42pm 1 2 mph 1009.1mb 60f -
10:36pm 1 3 mph 1009.2mb 60f -
10:30pm  -  2 mph - 60f -
10:24pm 2 8 mph - 60f -
10:18pm 6 10 mph - 59f 62f
10:12pm 8 9 mph - 59f 63f
10:06pm 7 8 mph - 58f 63f
10:00pm 6 8 mph - 58f 63f
9:54pm 5 8 mph - 58f 63f
9:48pm 5 7 mph - - -
9:42pm 5 9 mph - - -
9:36pm 7 10 mph - - -
9:30pm 5 8 mph - 57f 64f
9:24pm 5 9 mph - 56f 64f
9:18pm 7 9 mph - 56f -
9:12pm 6 7 mph - 56f -
9:06pm 5 6 mph - 56f -
9:00pm  -  mph - 56f 64f
8:54pm  -  mph - 56f 65f
8:48pm 7 10 mph 1009.8mb - -
8:42pm 7 10 mph 1009.8mb - -
8:36pm 8 9 mph 1009.7mb - -
8:30pm  -  mph - 55f -
8:24pm  -  mph - 55f -
8:18pm 7 10 mph 1010.1mb 54f -
8:12pm 6 10 mph 1010.1mb 54f -
8:06pm 7 11 mph 1010.1mb 54f -
8:00pm  -  mph - 53f 67f
7:54pm  -  mph - 53f 67f
7:48pm 6 8 mph 1010mb 53f -
7:42pm 6 8 mph 1010.1mb 53f -
7:36pm 6 10 mph 1010.1mb 53f -
7:30pm 7 10 mph 1010.2mb 53f -
7:24pm 7 13 mph 1010.4mb 53f -
7:18pm 8 14 mph - 53f 68f
7:12pm 7 14 mph - 53f 68f
7:06pm 7 15 mph - 53f 68f
7:00pm  -  mph - 53f -
6:54pm  -  mph - 53f -
6:48pm  -  mph - 53f 68f
6:42pm  -  mph - 53f 67f
6:36pm  -  mph - 53f 68f
6:30pm 9 14 mph 1010.1mb 53f 68f
6:24pm 8 13 mph 1010.2mb 53f 69f
6:18pm 9
mph
1010.2mb 53f 70f
6:12pm 6 10 mph 1010.3mb 53f 70f
6:06pm 6 8 mph 1010.5mb 53f 70f
6:00pm 6 13 mph 1010.6mb 53f 69f
5:54pm 9 14 mph 1010.7mb 53f 69f
5:48pm 9 16 mph 1010.9mb 53f 69f
5:42pm 11 15 mph 1011mb 53f 69f
5:36pm 11 17 mph 1011.1mb 53f 69f
5:30pm 10 14 mph 1011mb 53f 69f
5:24pm 10 14 mph 1011mb 53f 69f
5:18pm 10 14 mph 1011mb 53f 69f
5:12pm 11 15 mph 1011mb 52f 69f
5:06pm 10 16 mph 1011mb 52f 70f
5:00pm 8 15 mph 1011.1mb 52f 70f
4:54pm 11 14 mph 1011.1mb 52f 70f
4:48pm 8 14 mph 1011.2mb 52f 70f
4:42pm 8 15 mph 1011.2mb 52f 70f
4:36pm 9 14 mph 1011.1mb 52f 72f
4:30pm 10 14 mph 1011.2mb 52f 72f
4:24pm 10 13 mph 1011.3mb 52f 72f
4:18pm 9 14 mph 1011.5mb 52f 72f
4:12pm 8 11 mph 1011.5mb 52f 72f
4:06pm 8 14 mph 1011.5mb 52f 73f
4:00pm 8 13 mph 1011.5mb 52f 72f
3:54pm 8 14 mph 1011.4mb 52f 72f
3:48pm 8 13 mph 1011.4mb 52f 72f
3:42pm 10 14 mph 1011.4mb 52f 72f
3:36pm 10 13 mph 1011.4mb 52f 72f
3:30pm 9 11 mph 1011.6mb 52f 72f
3:24pm 7 11 mph 1011.4mb 52f 71f
3:18pm 10 11 mph 1011.3mb 52f 72f
3:12pm 7 11 mph 1011.6mb 52f 72f
3:06pm 8 11 mph 1011.6mb 53f 73f
3:00pm 9 11 mph 1011.6mb 53f 73f
2:54pm 8 11 mph 1011.6mb 53f 72f
2:48pm 8 14 mph 1011.8mb 53f 72f
2:42pm 10 13 mph 1011.8mb 53f 73f
2:36pm 9 14 mph 1012mb 53f 73f
2:30pm 11 14 mph 1011.9mb 53f 73f
2:24pm 11 13 mph 1011.9mb 53f 73f
2:18pm 10 15 mph 1011.9mb 53f 73f
2:12pm 10 13 mph 1012mb 53f 73f
2:06pm 9 15 mph 1011.9mb 53f 73f
2:00pm 10 13 mph 1011.9mb 53f 72f
1:54pm 9 13 mph 1012mb 53f 73f
1:48pm 10 14 mph 1012.1mb 53f 73f
1:42pm 10 13 mph 1012.2mb 53f 73f
1:36pm 8 10 mph 1012.1mb 53f 74f
1:30pm 8 11 mph 1012mb 53f 73f
1:24pm 7 10 mph 1012.1mb 53f 73f
1:18pm 8 15 mph 1012.2mb 54f 73f
1:12pm 11 15 mph 1012.2mb 54f 73f
1:06pm 10 14 mph 1012.3mb 54f 73f
1:00pm 7 9 mph 1012.4mb 54f 73f